首页
METAR-TAF:

METAR-TAF

机场 :

爱德华·劳伦斯·洛根将军国际机场

波士顿, 马萨诸塞州, 美国

纬度: 42-21-38N, 经度: 071-00-38W, 海拔: 6米

当前天气观测

该预报发布于35分钟前的14:54 UTC
风速10节,风向西
温度 31°C
湿度 55%
气压 1015 hPa
能見度: 16.1公里
少量云层高于4000英尺

METAR: KBOS 161454Z 28010KT 10SM FEW040 31/21 A2998 RMK AO2 SLP150 T03060206 50000

时间: 11:29 (15:29 UTC)

预报

该预报发布于30分钟前的14:59 UTC
预报有效从16日的 15点(UTC)到 17日的 18点(UTC)
风速11节,风向西
能見度: 10公里
散云层高于4500英尺
从 16日的 1800点(UTC)
风速11节,风向西转西北
能見度: 10公里
多云层高于6000英尺, 积雨云.
附近有雷暴
从 16日的 2100点(UTC)
风速10节,风向
能見度: 10公里
散云层高于6000英尺
从 17日的 0200点(UTC)
风速4节,风向北转西北
能見度: 10公里
散云层高于25000英尺
从 17日的 1400点(UTC)
风速6节,风向
能見度: 10公里
多云层高于25000英尺

TAF: KBOS 161459Z 1615/1718 28011KT P6SM SCT045 FM161800 29011KT P6SM VCTS BKN060CB FM162100 35010KT P6SM SCT060 FM170200 34004KT P6SM SCT250 FM171400 10006KT P6SM BKN250

超过4000个机场的气象观测和天气预报(METAR&TAF报告)。

可查询的气象台以黄色和红色小点在地图上表示。

将鼠标移到小点上方,可查看气象台名称。

然后点击查看天气观测和预报。

如需切换地图:点击带黑十字的绿色按钮放大地图;点击带横线的绿色按钮缩小地图;或者点击绿色箭头查看邻近地区的地图。


METAR-TAF: